createdAt,value
2018-11-10T00:01:28.408Z,61.91
2018-11-10T00:03:56.961Z,62.33
2018-11-10T00:06:25.556Z,62.55
2018-11-10T00:08:54.049Z,61.35
2018-11-10T00:11:22.473Z,61.53
2018-11-10T00:13:50.968Z,61.68
2018-11-10T00:16:19.638Z,59.44
2018-11-10T00:18:48.036Z,58.54
2018-11-10T00:21:16.468Z,59.74
2018-11-10T00:23:45.010Z,59.90
2018-11-10T00:26:13.455Z,62.34
2018-11-10T00:28:41.992Z,58.73
2018-11-10T00:31:10.424Z,57.60
2018-11-10T00:33:38.872Z,59.78
2018-11-10T00:36:07.398Z,59.95
2018-11-10T00:38:35.858Z,58.16
2018-11-10T00:41:04.392Z,60.18
2018-11-10T00:43:32.818Z,60.42
2018-11-10T00:46:01.357Z,57.37
2018-11-10T00:48:29.792Z,57.90
2018-11-10T00:50:58.319Z,58.89
2018-11-10T00:53:26.793Z,59.05
2018-11-10T00:55:55.289Z,58.19
2018-11-10T00:58:23.734Z,59.96
2018-11-10T01:00:52.262Z,62.47
2018-11-10T01:03:20.734Z,61.85
2018-11-10T01:05:49.193Z,62.10
2018-11-10T01:08:17.694Z,61.84
2018-11-10T01:10:46.359Z,64.44
2018-11-10T01:13:14.776Z,65.16
2018-11-10T01:15:43.244Z,59.37
2018-11-10T01:18:11.656Z,62.86
2018-11-10T01:20:40.090Z,63.45
2018-11-10T01:23:08.504Z,62.61
2018-11-10T01:25:37.008Z,64.79
2018-11-10T01:28:05.515Z,63.76
2018-11-10T01:30:33.992Z,64.37
2018-11-10T01:33:02.422Z,63.87
2018-11-10T01:35:30.875Z,63.31
2018-11-10T01:37:59.294Z,65.89
2018-11-10T01:40:27.779Z,65.29
2018-11-10T01:42:56.250Z,66.33
2018-11-10T01:45:24.781Z,66.49
2018-11-10T01:47:53.198Z,67.15
2018-11-10T01:50:21.637Z,68.66
2018-11-10T01:52:50.123Z,66.34
2018-11-10T01:55:18.555Z,67.32
2018-11-10T01:57:46.993Z,67.24
2018-11-10T02:00:16.774Z,68.59
2018-11-10T02:02:45.887Z,70.76
2018-11-10T02:05:14.504Z,69.68
2018-11-10T02:07:42.987Z,68.29
2018-11-10T02:10:13.770Z,68.53
2018-11-10T02:12:42.487Z,68.03
2018-11-10T02:15:12.862Z,66.53
2018-11-10T02:17:41.383Z,66.99
2018-11-10T02:20:13.062Z,67.11
2018-11-10T02:22:41.604Z,67.58
2018-11-10T02:25:12.118Z,67.10
2018-11-10T02:27:40.644Z,67.99
2018-11-10T02:30:10.337Z,68.71
2018-11-10T02:32:38.846Z,68.73
2018-11-10T02:35:07.912Z,68.65
2018-11-10T02:37:36.934Z,67.56
2018-11-10T02:40:06.335Z,67.22
2018-11-10T02:42:34.838Z,67.24
2018-11-10T02:45:03.323Z,68.80
2018-11-10T02:47:31.771Z,66.73
2018-11-10T02:50:00.257Z,66.23
2018-11-10T02:52:28.722Z,65.93
2018-11-10T02:54:57.148Z,65.59
2018-11-10T02:57:25.594Z,68.36
2018-11-10T02:59:54.076Z,68.28
2018-11-10T03:02:22.520Z,70.46
2018-11-10T03:04:50.968Z,70.57
2018-11-10T03:07:19.410Z,70.02
2018-11-10T03:09:48.019Z,70.90
2018-11-10T03:12:16.515Z,72.90
2018-11-10T03:14:44.965Z,70.84
2018-11-10T03:17:13.415Z,70.98
2018-11-10T03:19:41.892Z,69.80
2018-11-10T03:22:10.366Z,70.48
2018-11-10T03:24:39.532Z,71.61
2018-11-10T03:27:09.017Z,70.17
2018-11-10T03:29:37.527Z,70.28
2018-11-10T03:32:06.673Z,71.06
2018-11-10T03:34:36.153Z,70.00
2018-11-10T03:37:04.669Z,71.32
2018-11-10T03:39:33.224Z,69.16
2018-11-10T03:42:01.720Z,70.90
2018-11-10T03:44:30.159Z,69.17
2018-11-10T03:46:58.592Z,70.18
2018-11-10T03:49:26.995Z,70.35
2018-11-10T03:51:55.427Z,70.67
2018-11-10T03:54:23.894Z,71.37
2018-11-10T03:56:52.415Z,70.77
2018-11-10T03:59:20.844Z,70.80
2018-11-10T04:01:49.266Z,69.73
2018-11-10T04:04:17.656Z,71.05
2018-11-10T04:06:46.109Z,69.39
2018-11-10T04:09:14.583Z,69.79
2018-11-10T04:11:43.041Z,68.42
2018-11-10T04:14:11.583Z,69.96
2018-11-10T04:16:40.068Z,66.42
2018-11-10T04:19:08.460Z,68.66
2018-11-10T04:21:36.871Z,66.22
2018-11-10T04:24:05.520Z,67.38
2018-11-10T04:26:33.934Z,68.35
2018-11-10T04:29:02.428Z,68.50
2018-11-10T04:31:30.850Z,67.18
2018-11-10T04:33:59.330Z,69.25
2018-11-10T04:36:27.784Z,68.06
2018-11-10T04:38:56.235Z,67.41
2018-11-10T04:41:24.758Z,67.52
2018-11-10T04:43:53.220Z,69.57
2018-11-10T04:46:21.748Z,67.32
2018-11-10T04:48:50.183Z,69.77
2018-11-10T04:51:18.616Z,65.80
2018-11-10T04:53:47.055Z,68.50
2018-11-10T04:56:15.507Z,66.19
2018-11-10T04:58:44.025Z,67.69
2018-11-10T05:01:12.632Z,68.83
2018-11-10T05:03:41.025Z,69.86
2018-11-10T05:06:09.533Z,70.54
2018-11-10T05:08:38.084Z,70.62
2018-11-10T05:11:06.740Z,68.34
2018-11-10T05:13:35.188Z,68.64
2018-11-10T05:16:03.640Z,68.11
2018-11-10T05:18:33.051Z,69.93
2018-11-10T05:21:01.613Z,67.65
2018-11-10T05:23:30.084Z,67.26
2018-11-10T05:26:00.272Z,67.99
2018-11-10T05:28:28.771Z,67.85
2018-11-10T05:30:57.345Z,67.56
2018-11-10T05:33:26.130Z,69.27
2018-11-10T05:35:54.588Z,67.71
2018-11-10T05:38:23.060Z,68.03
2018-11-10T05:40:51.469Z,66.48
2018-11-10T05:43:19.937Z,65.14
2018-11-10T05:45:48.372Z,66.58
2018-11-10T05:48:16.824Z,65.40
2018-11-10T05:50:45.281Z,64.79
2018-11-10T05:53:13.765Z,66.27
2018-11-10T05:55:42.273Z,67.10
2018-11-10T05:58:10.792Z,68.38
2018-11-10T06:00:39.270Z,70.68
2018-11-10T06:03:07.808Z,68.38
2018-11-10T06:05:36.272Z,68.20
2018-11-10T06:08:05.090Z,67.24
2018-11-10T06:10:33.580Z,64.94
2018-11-10T06:13:02.047Z,63.46
2018-11-10T06:15:32.602Z,63.35
2018-11-10T06:18:01.069Z,61.59
2018-11-10T06:20:29.572Z,62.71
2018-11-10T06:22:58.045Z,63.79
2018-11-10T06:25:26.557Z,63.66
2018-11-10T06:27:54.989Z,64.02
2018-11-10T06:30:23.460Z,62.82
2018-11-10T06:32:51.966Z,61.83
2018-11-10T06:35:20.420Z,63.19
2018-11-10T06:37:48.942Z,63.68
2018-11-10T06:40:17.416Z,67.14
2018-11-10T06:42:45.880Z,67.75
2018-11-10T06:45:14.373Z,66.61
2018-11-10T06:47:42.955Z,64.82
2018-11-10T06:50:11.879Z,66.28
2018-11-10T06:52:41.394Z,66.89
2018-11-10T06:55:10.796Z,67.29
2018-11-10T06:57:39.341Z,68.43
2018-11-10T07:00:09.969Z,66.40
2018-11-10T07:02:38.415Z,67.68
2018-11-10T07:05:07.356Z,68.39
2018-11-10T07:07:35.852Z,68.13
2018-11-10T07:10:04.345Z,69.28
2018-11-10T07:12:32.793Z,69.52
2018-11-10T07:15:01.290Z,67.65
2018-11-10T07:17:30.554Z,69.96
2018-11-10T07:19:59.025Z,70.43
2018-11-10T07:22:27.561Z,72.42
2018-11-10T07:24:57.026Z,70.86
2018-11-10T07:27:27.566Z,72.33
2018-11-10T07:29:56.128Z,70.18
2018-11-10T07:32:24.658Z,71.88
2018-11-10T07:34:53.126Z,71.72
2018-11-10T07:37:21.809Z,71.92
2018-11-10T07:39:50.234Z,68.68
2018-11-10T07:42:19.927Z,68.81
2018-11-10T07:44:48.652Z,72.16
2018-11-10T07:47:18.559Z,70.85
2018-11-10T07:49:48.250Z,72.12
2018-11-10T07:52:16.786Z,70.96
2018-11-10T07:54:45.394Z,70.78
2018-11-10T07:57:13.893Z,70.75
2018-11-10T07:59:42.429Z,68.96
2018-11-10T08:02:12.020Z,71.97
2018-11-10T08:04:40.499Z,70.21
2018-11-10T08:07:09.035Z,70.29
2018-11-10T08:09:37.662Z,72.19
2018-11-10T08:12:06.281Z,73.18
2018-11-10T08:14:35.060Z,71.42
2018-11-10T08:17:04.111Z,72.07
2018-11-10T08:19:32.743Z,70.20
2018-11-10T08:22:03.077Z,71.04
2018-11-10T08:24:31.638Z,72.09
2018-11-10T08:27:00.126Z,70.51
2018-11-10T08:29:28.551Z,69.96
2018-11-10T08:31:57.008Z,71.37
2018-11-10T08:34:25.437Z,67.37
2018-11-10T08:36:55.973Z,69.25
2018-11-10T08:39:25.501Z,68.91
2018-11-10T08:41:54.067Z,67.12
2018-11-10T08:44:24.459Z,68.54
2018-11-10T08:46:52.995Z,67.31
2018-11-10T08:49:21.541Z,67.63
2018-11-10T08:51:50.057Z,67.33
2018-11-10T08:54:18.574Z,69.24
2018-11-10T08:56:48.062Z,66.71
2018-11-10T08:59:16.576Z,65.36
2018-11-10T09:01:45.306Z,68.74
2018-11-10T09:04:13.929Z,67.17
2018-11-10T09:06:42.616Z,66.44
2018-11-10T09:09:12.876Z,69.21
2018-11-10T09:11:42.602Z,67.07
2018-11-10T09:14:11.300Z,67.46
2018-11-10T09:16:40.871Z,69.04
2018-11-10T09:19:13.648Z,67.26
2018-11-10T09:21:43.260Z,69.66
2018-11-10T09:24:12.208Z,66.16
2018-11-10T09:26:42.568Z,65.59
2018-11-10T09:29:11.402Z,69.37
2018-11-10T09:31:40.596Z,66.12
2018-11-10T09:34:10.094Z,69.65
2018-11-10T09:36:39.374Z,68.38
2018-11-10T09:39:09.726Z,64.44
2018-11-10T09:41:39.524Z,65.41
2018-11-10T09:44:10.459Z,66.03
2018-11-10T09:46:39.824Z,64.89
2018-11-10T09:49:08.691Z,64.91
2018-11-10T09:51:37.534Z,63.83
2018-11-10T09:54:07.116Z,65.29
2018-11-10T09:56:36.619Z,65.75
2018-11-10T09:59:05.976Z,66.16
2018-11-10T10:01:34.712Z,63.91
2018-11-10T10:04:02.952Z,63.00
2018-11-10T10:06:31.529Z,66.16
2018-11-10T10:09:00.061Z,65.75
2018-11-10T10:11:28.498Z,65.53
2018-11-10T10:13:57.076Z,64.47
2018-11-10T10:16:26.038Z,63.93
2018-11-10T10:18:54.429Z,65.31
2018-11-10T10:21:23.181Z,67.56
2018-11-10T10:23:51.685Z,64.74
2018-11-10T10:26:20.214Z,66.53
2018-11-10T10:28:48.917Z,66.09
2018-11-10T10:31:18.497Z,66.04
2018-11-10T10:33:47.068Z,65.27
2018-11-10T10:36:15.732Z,63.25
2018-11-10T10:38:44.469Z,65.19
2018-11-10T10:41:13.021Z,63.08
2018-11-10T10:43:41.613Z,65.75
2018-11-10T10:46:10.110Z,63.32
2018-11-10T10:48:38.809Z,63.90
2018-11-10T10:51:08.604Z,62.50
2018-11-10T10:53:37.159Z,63.36
2018-11-10T10:56:06.057Z,65.94
2018-11-10T10:58:34.454Z,65.15
2018-11-10T11:01:09.268Z,66.79
2018-11-10T11:03:43.209Z,68.28
2018-11-10T11:06:11.934Z,67.14
2018-11-10T11:08:40.473Z,68.26
2018-11-10T11:11:09.047Z,67.05
2018-11-10T11:13:37.612Z,67.12
2018-11-10T11:16:06.322Z,66.96
2018-11-10T11:18:34.848Z,65.37
2018-11-10T11:21:03.348Z,65.70
2018-11-10T11:23:31.912Z,66.72
2018-11-10T11:26:00.594Z,65.55
2018-11-10T11:28:29.232Z,67.30
2018-11-10T11:30:57.907Z,66.45
2018-11-10T11:33:26.465Z,65.75
2018-11-10T11:35:55.022Z,65.23
2018-11-10T11:38:23.568Z,64.61
2018-11-10T11:40:52.295Z,65.35
2018-11-10T11:43:20.998Z,66.49
2018-11-10T11:45:55.576Z,64.63
2018-11-10T11:48:26.838Z,64.26
2018-11-10T11:50:56.313Z,64.95
2018-11-10T11:56:00.676Z,66.43
2018-11-10T11:58:29.267Z,65.87
2018-11-10T12:00:57.631Z,62.91
2018-11-10T12:03:26.110Z,62.63
2018-11-10T12:05:54.720Z,64.33
2018-11-10T12:08:23.165Z,62.69
2018-11-10T12:10:51.872Z,62.36
2018-11-10T12:13:20.263Z,64.49
2018-11-10T12:15:48.728Z,65.45
2018-11-10T12:18:17.159Z,66.39
2018-11-10T12:20:45.702Z,66.20
2018-11-10T12:23:14.105Z,64.71
2018-11-10T12:25:42.571Z,67.08
2018-11-10T12:28:11.128Z,67.90
2018-11-10T12:30:39.574Z,66.54
2018-11-10T12:33:08.010Z,67.23
2018-11-10T12:35:36.372Z,67.62
2018-11-10T12:38:04.876Z,67.61
2018-11-10T12:40:33.327Z,65.29
2018-11-10T12:43:01.852Z,66.95
2018-11-10T12:45:30.431Z,65.28
2018-11-10T12:47:58.950Z,66.71
2018-11-10T12:50:27.393Z,67.01
2018-11-10T12:52:55.975Z,66.16
2018-11-10T12:55:24.430Z,63.22
2018-11-10T12:57:52.952Z,63.84
2018-11-10T13:00:21.266Z,64.01
2018-11-10T13:02:49.646Z,65.27
2018-11-10T13:05:18.007Z,62.80
2018-11-10T13:07:47.319Z,67.21
2018-11-10T13:10:15.654Z,65.96
2018-11-10T13:12:44.524Z,67.74
2018-11-10T13:15:13.030Z,65.79
2018-11-10T13:17:41.647Z,65.20
2018-11-10T13:20:12.568Z,65.17
2018-11-10T13:22:41.035Z,64.96
2018-11-10T13:25:11.723Z,62.74
2018-11-10T13:27:40.178Z,67.21
2018-11-10T13:30:09.975Z,65.96
2018-11-10T13:32:38.474Z,69.47
2018-11-10T13:35:07.626Z,71.36
2018-11-10T13:37:36.410Z,71.00
2018-11-10T13:40:04.999Z,71.30
2018-11-10T13:42:33.734Z,71.28
2018-11-10T13:45:02.383Z,69.98
2018-11-10T13:47:30.948Z,70.48
2018-11-10T13:49:59.747Z,69.78
2018-11-10T13:52:28.564Z,71.17
2018-11-10T13:54:56.652Z,69.41
2018-11-10T13:57:25.119Z,69.37
2018-11-10T13:59:53.591Z,68.83
2018-11-10T14:02:22.038Z,68.27
2018-11-10T14:04:50.479Z,66.27
2018-11-10T14:07:18.959Z,66.09
2018-11-10T14:09:47.406Z,68.42
2018-11-10T14:12:15.881Z,66.51
2018-11-10T14:14:44.339Z,66.46
2018-11-10T14:17:12.867Z,66.85
2018-11-10T14:19:41.379Z,68.01
2018-11-10T14:22:09.916Z,67.61
2018-11-10T14:24:38.338Z,67.12
2018-11-10T14:27:06.727Z,65.59
2018-11-10T14:29:35.159Z,67.31
2018-11-10T14:32:03.688Z,65.76
2018-11-10T14:34:32.119Z,66.52
2018-11-10T14:37:00.592Z,67.48
2018-11-10T14:39:29.047Z,69.23
2018-11-10T14:41:57.547Z,69.54
2018-11-10T14:44:26.040Z,69.93
2018-11-10T14:46:54.528Z,66.20
2018-11-10T14:49:22.968Z,69.00
2018-11-10T14:51:51.412Z,71.69
2018-11-10T14:54:19.859Z,71.04
2018-11-10T14:56:48.307Z,71.17
2018-11-10T14:59:16.733Z,70.72
2018-11-10T15:01:45.160Z,69.52
2018-11-10T15:04:13.771Z,70.01
2018-11-10T15:06:42.243Z,70.03
2018-11-10T15:09:11.151Z,69.68
2018-11-10T15:11:39.817Z,68.77
2018-11-10T15:14:08.348Z,69.82
2018-11-10T15:16:36.995Z,68.53
2018-11-10T15:19:05.519Z,68.55
2018-11-10T15:21:33.948Z,69.27
2018-11-10T15:24:02.403Z,69.31
2018-11-10T15:26:30.853Z,67.35
2018-11-10T15:28:59.464Z,68.28
2018-11-10T15:31:27.925Z,68.49
2018-11-10T15:33:56.446Z,66.53
2018-11-10T15:36:24.882Z,66.44
2018-11-10T15:38:53.604Z,71.63
2018-11-10T15:41:22.169Z,66.61
2018-11-10T15:43:50.642Z,71.66
2018-11-10T15:46:19.177Z,68.64
2018-11-10T15:48:47.715Z,69.22
2018-11-10T15:51:16.224Z,66.57
2018-11-10T15:53:44.675Z,67.56
2018-11-10T15:56:13.110Z,66.33
2018-11-10T15:58:41.679Z,69.19
2018-11-10T16:01:10.227Z,72.29
2018-11-10T16:03:38.779Z,71.82
2018-11-10T16:06:07.242Z,74.49
2018-11-10T16:08:35.727Z,74.17
2018-11-10T16:11:04.230Z,72.76
2018-11-10T16:13:32.756Z,72.97
2018-11-10T16:16:01.176Z,73.14
2018-11-10T16:18:30.084Z,72.41
2018-11-10T16:20:58.617Z,70.83
2018-11-10T16:23:27.002Z,73.46
2018-11-10T16:25:55.897Z,70.73
2018-11-10T16:28:24.307Z,72.80
2018-11-10T16:30:52.816Z,75.23
2018-11-10T16:33:21.287Z,71.26
2018-11-10T16:35:49.727Z,71.59
2018-11-10T16:38:18.211Z,71.81
2018-11-10T16:40:46.643Z,72.90
2018-11-10T16:43:15.069Z,73.99
2018-11-10T16:45:43.503Z,70.92
2018-11-10T16:48:11.986Z,72.83
2018-11-10T16:50:40.419Z,72.74
2018-11-10T16:53:08.868Z,72.34
2018-11-10T16:55:37.392Z,75.36
2018-11-10T16:58:06.321Z,72.50
2018-11-10T17:00:34.805Z,74.96
2018-11-10T17:03:03.195Z,74.69
2018-11-10T17:05:31.573Z,74.07
2018-11-10T17:08:00.028Z,74.09
2018-11-10T17:10:28.687Z,74.13
2018-11-10T17:12:57.082Z,73.08
2018-11-10T17:15:25.484Z,69.75
2018-11-10T17:17:53.910Z,71.86
2018-11-10T17:20:22.775Z,72.12
2018-11-10T17:22:51.164Z,71.09
2018-11-10T17:25:19.587Z,67.29
2018-11-10T17:27:48.010Z,71.39
2018-11-10T17:30:18.180Z,71.64
2018-11-10T17:32:46.658Z,71.79
2018-11-10T17:35:15.278Z,73.19
2018-11-10T17:37:43.942Z,70.27
2018-11-10T17:40:13.211Z,71.84
2018-11-10T17:42:41.639Z,74.63
2018-11-10T17:45:11.984Z,71.86
2018-11-10T17:47:40.691Z,73.48
2018-11-10T17:50:10.132Z,70.60
2018-11-10T17:52:39.293Z,71.91
2018-11-10T17:55:08.644Z,72.50
2018-11-10T17:57:37.161Z,71.75
2018-11-10T18:00:06.106Z,73.39
2018-11-10T18:02:34.633Z,71.29
2018-11-10T18:05:03.130Z,69.25
2018-11-10T18:07:31.990Z,70.43
2018-11-10T18:10:00.412Z,71.17
2018-11-10T18:12:28.859Z,70.01
2018-11-10T18:14:57.277Z,70.38
2018-11-10T18:17:25.827Z,71.03
2018-11-10T18:19:54.263Z,70.04
2018-11-10T18:22:22.703Z,69.63
2018-11-10T18:24:51.167Z,69.45
2018-11-10T18:27:19.630Z,67.00
2018-11-10T18:29:48.267Z,66.72
2018-11-10T18:32:16.753Z,67.67
2018-11-10T18:34:45.227Z,71.44
2018-11-10T18:37:13.644Z,71.30
2018-11-10T18:39:42.123Z,70.99
2018-11-10T18:42:10.540Z,69.22
2018-11-10T18:44:39.007Z,68.26
2018-11-10T18:47:07.604Z,68.02
2018-11-10T18:49:35.999Z,72.48
2018-11-10T18:52:04.377Z,71.28
2018-11-10T18:54:32.667Z,68.45
2018-11-10T18:57:01.028Z,67.41
2018-11-10T18:59:29.350Z,69.64
2018-11-10T19:01:57.678Z,68.88
2018-11-10T19:04:26.027Z,70.54
2018-11-10T19:06:54.355Z,71.37
2018-11-10T19:09:22.815Z,69.77
2018-11-10T19:11:51.159Z,72.12
2018-11-10T19:14:19.528Z,72.80
2018-11-10T19:16:48.115Z,71.73
2018-11-10T19:19:16.452Z,70.63
2018-11-10T19:21:44.940Z,70.72
2018-11-10T19:24:13.339Z,70.24
2018-11-10T19:26:41.766Z,66.97
2018-11-10T19:29:10.258Z,66.75
2018-11-10T19:31:38.663Z,67.18
2018-11-10T19:34:07.008Z,70.79
2018-11-10T19:36:35.394Z,67.19
2018-11-10T19:39:04.981Z,72.43
2018-11-10T19:41:33.347Z,69.99
2018-11-10T19:44:01.687Z,73.64
2018-11-10T19:46:30.085Z,70.23
2018-11-10T19:48:59.427Z,71.46
2018-11-10T19:51:27.995Z,69.87
2018-11-10T19:53:56.239Z,70.56
2018-11-10T19:56:24.575Z,67.75
2018-11-10T19:58:52.904Z,68.54
2018-11-10T20:01:21.280Z,68.63
2018-11-10T20:03:49.638Z,68.48
2018-11-10T20:06:17.971Z,71.25
2018-11-10T20:08:46.291Z,73.44
2018-11-10T20:11:14.673Z,72.19
2018-11-10T20:13:42.983Z,70.24
2018-11-10T20:16:11.292Z,70.18
2018-11-10T20:18:40.219Z,71.38
2018-11-10T20:21:08.541Z,72.32
2018-11-10T20:23:36.871Z,70.34
2018-11-10T20:26:05.455Z,69.90
2018-11-10T20:28:34.330Z,71.95
2018-11-10T20:31:02.887Z,72.00
2018-11-10T20:33:32.125Z,70.28
2018-11-10T20:36:00.453Z,72.81
2018-11-10T20:38:28.812Z,72.72
2018-11-10T20:40:57.188Z,71.18
2018-11-10T20:43:25.531Z,71.15
2018-11-10T20:45:53.850Z,70.25
2018-11-10T20:48:22.313Z,70.19
2018-11-10T20:50:50.624Z,68.61
2018-11-10T20:53:19.251Z,70.99
2018-11-10T20:55:47.588Z,68.84
2018-11-10T20:58:15.935Z,69.44
2018-11-10T21:00:44.396Z,71.15
2018-11-10T21:03:12.720Z,70.47
2018-11-10T21:05:41.146Z,69.44
2018-11-10T21:08:09.412Z,70.75
2018-11-10T21:10:37.735Z,70.90
2018-11-10T21:13:06.105Z,72.89
2018-11-10T21:15:34.487Z,69.53
2018-11-10T21:18:02.883Z,72.47
2018-11-10T21:20:31.267Z,71.71
2018-11-10T21:22:59.850Z,68.86
2018-11-10T21:25:28.378Z,68.08
2018-11-10T21:27:56.863Z,69.18
2018-11-10T21:30:25.380Z,68.90
2018-11-10T21:32:53.827Z,70.42
2018-11-10T21:35:22.438Z,71.65
2018-11-10T21:37:50.738Z,68.68
2018-11-10T21:40:20.371Z,68.35
2018-11-10T21:42:48.995Z,71.63
2018-11-10T21:45:17.935Z,70.70
2018-11-10T21:47:46.666Z,69.03
2018-11-10T21:50:17.041Z,66.92
2018-11-10T21:52:45.849Z,68.76
2018-11-10T21:55:16.316Z,67.28
2018-11-10T21:57:45.464Z,68.87
2018-11-10T22:00:15.691Z,68.37
2018-11-10T22:02:44.935Z,69.10
2018-11-10T22:05:13.312Z,68.41
2018-11-10T22:07:41.811Z,70.67
2018-11-10T22:10:12.287Z,68.55
2018-11-10T22:12:40.824Z,67.91
2018-11-10T22:15:12.196Z,70.32
2018-11-10T22:17:41.163Z,70.54
2018-11-10T22:20:10.949Z,70.90
2018-11-10T22:22:39.679Z,71.03
2018-11-10T22:25:09.011Z,68.98
2018-11-10T22:27:38.254Z,69.39
2018-11-10T22:30:07.796Z,67.82
2018-11-10T22:32:36.267Z,67.43
2018-11-10T22:35:05.015Z,67.78
2018-11-10T22:37:33.560Z,70.99
2018-11-10T22:40:02.004Z,72.71
2018-11-10T22:42:30.449Z,70.96
2018-11-10T22:44:58.883Z,71.29
2018-11-10T22:47:27.400Z,71.10
2018-11-10T22:49:55.783Z,66.85
2018-11-10T22:52:24.211Z,69.71
2018-11-10T22:54:52.664Z,72.26
2018-11-10T22:57:21.092Z,70.92
2018-11-10T22:59:49.558Z,69.39
2018-11-10T23:02:18.087Z,67.45
2018-11-10T23:04:46.586Z,68.44
2018-11-10T23:07:15.115Z,70.60
2018-11-10T23:09:43.526Z,68.22
2018-11-10T23:12:12.008Z,71.84
2018-11-10T23:14:40.380Z,69.50
2018-11-10T23:17:08.798Z,69.37
2018-11-10T23:19:37.175Z,71.09
2018-11-10T23:22:05.748Z,72.78
2018-11-10T23:24:34.075Z,68.59
2018-11-10T23:27:02.451Z,67.18
2018-11-10T23:29:30.876Z,69.65
2018-11-10T23:31:59.312Z,68.10
2018-11-10T23:34:27.795Z,68.27
2018-11-10T23:36:56.222Z,67.18
2018-11-10T23:39:24.693Z,66.97
2018-11-10T23:41:53.096Z,66.95
2018-11-10T23:44:21.514Z,67.69
2018-11-10T23:46:49.952Z,67.61
2018-11-10T23:49:18.332Z,69.48
2018-11-10T23:51:46.826Z,69.44
2018-11-10T23:56:42.688Z,71.55
2018-11-10T23:59:11.124Z,73.43
